Time;durP1;ratioP1;P1;durP2;ratioP2;P2;SDS_P1;SDS_P2;PMS_P1;PMS_P2;Temp;Humidity;BMP_temperature;BMP_pressure;BME280_temperature;BME280_humidity;BME280_pressure;Samples;Min_cycle;Max_cycle;Signal;HPM_P1;HPM_P2
2022/09/06 00:00:09;;;;;;;8.93;6.72;;;19.20;82.70;;;;;;4967780;28;20605;-74
2022/09/06 00:02:36;;;;;;;9.15;7.38;;;19.20;82.80;;;;;;4965239;28;20478;-74
2022/09/06 00:05:03;;;;;;;9.45;6.88;;;19.20;82.80;;;;;;4964350;28;20031;-74
2022/09/06 00:07:29;;;;;;;9.35;7.47;;;19.10;82.90;;;;;;4964693;28;20065;-74
2022/09/06 00:09:55;;;;;;;9.90;7.20;;;19.10;83.10;;;;;;4962612;28;20037;-74
2022/09/06 00:12:22;;;;;;;10.10;7.43;;;19.10;83.10;;;;;;4964689;28;20121;-74
2022/09/06 00:14:48;;;;;;;9.77;8.00;;;19.20;83.10;;;;;;4964951;28;20035;-75
2022/09/06 00:17:13;;;;;;;9.70;7.18;;;19.20;83.10;;;;;;4970366;28;20034;-75
2022/09/06 00:19:39;;;;;;;11.55;7.93;;;19.20;83.20;;;;;;4972169;28;20109;-74
2022/09/06 00:22:05;;;;;;;11.38;8.63;;;19.20;83.30;;;;;;4982554;28;20053;-74
2022/09/06 00:24:30;;;;;;;9.65;7.78;;;19.10;83.30;;;;;;4982631;28;20624;-74
2022/09/06 00:26:56;;;;;;;10.50;7.55;;;19.10;83.50;;;;;;4983121;28;20345;-74
2022/09/06 00:29:22;;;;;;;9.45;7.65;;;19.00;83.70;;;;;;4981089;28;20027;-74
2022/09/06 00:31:47;;;;;;;11.40;8.50;;;19.10;83.80;;;;;;4980794;28;20026;-74
2022/09/06 00:34:13;;;;;;;12.63;9.25;;;19.10;83.80;;;;;;4983667;28;20434;-73
2022/09/06 00:36:38;;;;;;;11.00;9.35;;;19.00;83.70;;;;;;4983972;28;20058;-74
2022/09/06 00:39:04;;;;;;;9.15;8.10;;;19.00;83.90;;;;;;4983934;28;20106;-74
2022/09/06 00:41:30;;;;;;;11.77;9.05;;;18.90;84.20;;;;;;4986077;28;20022;-74
2022/09/06 00:43:55;;;;;;;10.48;9.38;;;18.90;84.40;;;;;;4984853;28;20038;-73
2022/09/06 00:46:25;;;;;;;10.93;8.85;;;18.90;84.50;;;;;;4978185;28;20042;-73
2022/09/06 00:48:55;;;;;;;11.90;9.70;;;18.80;84.40;;;;;;4982269;28;20089;-74
2022/09/06 00:51:24;;;;;;;10.93;9.80;;;18.80;84.60;;;;;;4985072;28;20578;-73
2022/09/06 00:53:50;;;;;;;12.82;11.45;;;18.70;84.70;;;;;;4988802;28;20038;-74
2022/09/06 00:56:16;;;;;;;11.50;10.30;;;18.60;84.80;;;;;;4987995;28;20133;-74
2022/09/06 00:58:42;;;;;;;10.55;9.43;;;18.60;85.00;;;;;;4988728;28;20105;-74
2022/09/06 01:01:07;;;;;;;13.38;10.75;;;18.60;85.20;;;;;;4985936;28;20757;-74
2022/09/06 01:03:34;;;;;;;10.32;9.13;;;18.60;85.30;;;;;;4984294;28;20459;-74
2022/09/06 01:06:18;;;;;;;12.10;10.20;;;18.50;85.50;;;;;;4988315;28;20049;-74
2022/09/06 01:09:02;;;;;;;10.68;9.48;;;18.50;85.80;;;;;;4976276;28;20323;-74
2022/09/06 01:11:42;;;;;;;13.13;10.13;;;18.50;85.90;;;;;;4986008;28;20038;-73
2022/09/06 01:14:11;;;;;;;10.98;9.77;;;18.50;86.00;;;;;;4986613;28;20294;-74
2022/09/06 01:16:43;;;;;;;11.05;9.88;;;18.40;85.90;;;;;;4984227;28;20324;-73
2022/09/06 01:19:40;;;;;;;11.27;9.45;;;18.40;85.90;;;;;;4985773;28;20030;-74
2022/09/06 01:22:28;;;;;;;14.05;11.85;;;18.40;86.00;;;;;;4988154;28;20042;-74
2022/09/06 01:25:11;;;;;;;14.25;10.43;;;18.30;86.00;;;;;;4975593;28;20046;-73
2022/09/06 01:27:40;;;;;;;12.35;11.07;;;18.30;86.10;;;;;;4968045;28;20047;-74
2022/09/06 01:30:09;;;;;;;13.68;10.27;;;18.20;86.20;;;;;;4962833;28;20045;-74
2022/09/06 01:32:45;;;;;;;13.52;11.05;;;18.20;86.30;;;;;;4962446;28;20612;-74
2022/09/06 01:35:28;;;;;;;12.60;11.30;;;18.20;86.40;;;;;;4966777;28;20479;-74
2022/09/06 01:37:55;;;;;;;13.63;10.93;;;18.20;86.40;;;;;;4980224;28;20034;-74
2022/09/06 01:40:21;;;;;;;13.02;11.70;;;18.20;86.60;;;;;;4983923;28;20300;-74
2022/09/06 01:42:49;;;;;;;13.45;11.63;;;18.10;86.60;;;;;;4983421;28;20486;-74
2022/09/06 01:45:19;;;;;;;13.50;12.07;;;18.10;86.70;;;;;;4984415;28;20053;-74
2022/09/06 01:48:15;;;;;;;14.65;12.30;;;18.10;86.70;;;;;;4972112;28;20039;-74
2022/09/06 01:50:53;;;;;;;14.90;12.63;;;18.10;86.80;;;;;;4981775;28;20643;-74
2022/09/06 01:53:58;;;;;;;14.68;13.00;;;18.00;87.10;;;;;;4981943;28;20038;-74
2022/09/06 01:56:50;;;;;;;15.87;14.17;;;18.00;87.20;;;;;;4985765;28;20045;-74
2022/09/06 01:59:31;;;;;;;15.50;13.73;;;18.00;87.30;;;;;;4980658;28;20287;-74
2022/09/06 02:02:10;;;;;;;17.42;13.02;;;18.00;87.30;;;;;;4989862;28;20053;-74
2022/09/06 02:04:50;;;;;;;15.60;13.93;;;18.00;87.40;;;;;;4980255;28;20051;-75
2022/09/06 02:07:26;;;;;;;14.15;12.13;;;18.10;87.40;;;;;;4979185;28;20292;-75
2022/09/06 02:09:59;;;;;;;15.15;12.63;;;18.00;87.40;;;;;;4981011;28;20026;-74
2022/09/06 02:12:28;;;;;;;16.45;14.85;;;17.90;87.40;;;;;;4986739;28;20045;-74
2022/09/06 02:15:04;;;;;;;14.20;12.70;;;17.90;87.40;;;;;;4985256;28;20084;-74
2022/09/06 02:17:33;;;;;;;15.05;13.48;;;17.90;87.50;;;;;;4978736;28;20102;-73
2022/09/06 02:20:19;;;;;;;15.85;14.10;;;17.90;87.20;;;;;;4965892;28;20049;-73
2022/09/06 02:22:46;;;;;;;16.25;14.55;;;17.80;87.30;;;;;;4964336;28;20062;-74
2022/09/06 02:25:19;;;;;;;17.33;15.55;;;17.80;87.50;;;;;;4965477;28;20071;-73
2022/09/06 02:27:45;;;;;;;16.45;14.75;;;17.80;87.60;;;;;;4967238;28;20063;-73
2022/09/06 02:30:11;;;;;;;17.50;15.70;;;17.70;87.50;;;;;;4969691;28;20112;-73
2022/09/06 02:32:43;;;;;;;17.52;15.82;;;17.70;87.70;;;;;;4979959;28;20360;-74
2022/09/06 02:35:15;;;;;;;17.92;16.02;;;17.70;87.60;;;;;;4964284;28;20680;-73
2022/09/06 02:37:42;;;;;;;16.52;14.93;;;17.60;87.80;;;;;;4967623;28;20031;-73
2022/09/06 02:40:09;;;;;;;17.05;15.00;;;17.60;87.90;;;;;;4959885;28;20435;-73
2022/09/06 02:42:34;;;;;;;17.52;15.70;;;17.60;87.90;;;;;;4965772;28;20026;-74
2022/09/06 02:45:00;;;;;;;16.90;15.10;;;17.60;88.00;;;;;;4985160;28;20057;-75
2022/09/06 02:47:26;;;;;;;18.65;16.50;;;17.60;88.10;;;;;;4988873;28;20547;-74
2022/09/06 02:49:51;;;;;;;15.70;14.00;;;17.60;88.10;;;;;;4986326;28;20165;-73
2022/09/06 02:52:17;;;;;;;15.07;13.50;;;17.50;88.20;;;;;;4982508;28;20035;-74
2022/09/06 02:54:43;;;;;;;14.73;13.00;;;17.50;88.00;;;;;;4967445;28;20063;-74
2022/09/06 02:57:09;;;;;;;13.80;12.27;;;17.50;88.00;;;;;;4966632;28;20116;-73
2022/09/06 02:59:35;;;;;;;16.42;13.20;;;17.50;88.00;;;;;;4966723;28;20044;-74
2022/09/06 03:02:00;;;;;;;13.30;11.90;;;17.50;87.90;;;;;;4965111;28;20043;-73
2022/09/06 03:04:26;;;;;;;13.05;11.75;;;17.50;87.80;;;;;;4964557;28;20030;-74
2022/09/06 03:06:52;;;;;;;14.30;12.30;;;17.50;87.70;;;;;;4964349;28;20123;-74
2022/09/06 03:09:17;;;;;;;15.48;13.02;;;17.50;87.70;;;;;;4966632;28;20162;-73
2022/09/06 03:11:43;;;;;;;13.40;11.38;;;17.40;87.70;;;;;;4965283;28;20057;-73
2022/09/06 03:14:09;;;;;;;15.43;11.90;;;17.40;87.80;;;;;;4972998;28;20042;-74
2022/09/06 03:16:37;;;;;;;13.98;12.40;;;17.40;87.80;;;;;;4985363;28;20069;-73
2022/09/06 03:19:03;;;;;;;12.73;11.40;;;17.40;87.60;;;;;;4976120;28;20027;-74
2022/09/06 03:21:28;;;;;;;12.13;10.55;;;17.40;87.40;;;;;;4961767;28;20478;-74
2022/09/06 03:23:54;;;;;;;12.77;10.45;;;17.40;87.40;;;;;;4959978;28;20441;-74
2022/09/06 03:26:20;;;;;;;13.52;9.95;;;17.30;87.40;;;;;;4971127;28;20034;-75
2022/09/06 03:28:45;;;;;;;11.20;9.43;;;17.30;87.40;;;;;;4985323;28;20050;-74
2022/09/06 03:31:11;;;;;;;11.65;10.45;;;17.30;87.50;;;;;;4984593;28;20084;-73
2022/09/06 03:33:37;;;;;;;11.35;10.13;;;17.30;87.50;;;;;;4984532;28;20038;-73
2022/09/06 03:36:03;;;;;;;13.32;10.38;;;17.30;87.40;;;;;;4979999;28;20034;-73
2022/09/06 03:38:29;;;;;;;13.68;9.98;;;17.20;87.30;;;;;;4980375;28;20498;-73
2022/09/06 03:40:55;;;;;;;10.95;9.75;;;17.20;87.20;;;;;;4985948;28;20112;-73
2022/09/06 03:43:22;;;;;;;14.00;10.57;;;17.20;87.30;;;;;;4981264;28;20409;-73
2022/09/06 03:45:50;;;;;;;12.40;9.98;;;17.20;87.30;;;;;;4984298;28;20079;-72
2022/09/06 03:48:17;;;;;;;12.90;11.15;;;17.20;87.30;;;;;;4983911;28;20038;-72
2022/09/06 03:50:49;;;;;;;16.27;12.07;;;17.20;87.20;;;;;;4985285;28;20065;-73
2022/09/06 03:53:16;;;;;;;13.80;11.65;;;17.10;87.20;;;;;;4987869;28;20046;-73
2022/09/06 03:55:49;;;;;;;14.52;11.38;;;17.10;87.20;;;;;;4981444;28;20035;-74
2022/09/06 03:58:17;;;;;;;12.20;10.38;;;17.10;87.20;;;;;;4976864;28;20065;-73
2022/09/06 04:00:43;;;;;;;16.98;12.23;;;17.10;87.30;;;;;;4982383;28;20022;-74
2022/09/06 04:03:09;;;;;;;14.88;12.43;;;17.10;87.30;;;;;;4984025;28;20085;-73
2022/09/06 04:05:35;;;;;;;13.82;12.07;;;17.10;87.40;;;;;;4982505;28;20105;-72
2022/09/06 04:08:01;;;;;;;15.25;12.20;;;17.10;87.40;;;;;;4985237;28;20042;-76
2022/09/06 04:10:27;;;;;;;15.52;12.18;;;17.10;87.40;;;;;;4983288;28;20040;-72
2022/09/06 04:12:53;;;;;;;14.48;12.82;;;17.00;87.40;;;;;;4979409;28;20101;-73
2022/09/06 04:15:18;;;;;;;16.02;12.60;;;17.00;87.30;;;;;;4978235;28;20046;-74
2022/09/06 04:17:45;;;;;;;14.68;13.10;;;17.00;87.30;;;;;;4984039;28;20475;-72
2022/09/06 04:20:16;;;;;;;14.65;13.15;;;17.00;87.30;;;;;;4979734;28;20089;-73
2022/09/06 04:22:42;;;;;;;17.90;14.18;;;16.90;87.30;;;;;;4983848;28;20042;-73
2022/09/06 04:25:08;;;;;;;15.40;12.82;;;16.90;87.60;;;;;;4977923;28;20046;-73
2022/09/06 04:27:33;;;;;;;19.27;14.82;;;16.80;87.70;;;;;;4975374;28;20042;-72
2022/09/06 04:29:59;;;;;;;20.30;14.25;;;16.80;87.80;;;;;;4975105;28;20034;-73
2022/09/06 04:32:25;;;;;;;18.00;14.73;;;16.80;87.90;;;;;;4974056;28;20121;-73
2022/09/06 04:34:50;;;;;;;18.23;16.33;;;16.80;88.00;;;;;;4972892;28;20112;-74
2022/09/06 04:37:18;;;;;;;18.60;16.70;;;16.80;88.00;;;;;;4974980;28;20034;-73
2022/09/06 04:39:45;;;;;;;19.00;16.50;;;16.70;88.10;;;;;;4972457;28;20045;-73
2022/09/06 04:42:10;;;;;;;19.73;17.52;;;16.80;88.10;;;;;;4975067;28;20042;-73
2022/09/06 04:44:36;;;;;;;18.50;16.50;;;16.70;88.10;;;;;;4971899;28;20415;-73
2022/09/06 04:47:05;;;;;;;18.38;16.42;;;16.60;88.20;;;;;;4971386;28;20042;-73
2022/09/06 04:49:31;;;;;;;18.83;16.33;;;16.60;88.40;;;;;;4973610;28;20037;-72
2022/09/06 04:51:57;;;;;;;20.35;16.58;;;16.60;88.60;;;;;;4976399;28;20030;-73
2022/09/06 04:54:22;;;;;;;18.75;16.23;;;16.60;88.70;;;;;;4971303;28;20058;-73
2022/09/06 04:56:48;;;;;;;21.73;17.70;;;16.60;88.70;;;;;;4978916;28;20031;-72
2022/09/06 04:59:13;;;;;;;20.02;17.85;;;16.50;88.60;;;;;;4982338;28;20046;-74
2022/09/06 05:01:39;;;;;;;20.67;17.45;;;16.50;88.60;;;;;;4979845;28;20439;-73
2022/09/06 05:04:05;;;;;;;20.90;18.70;;;16.50;88.60;;;;;;4979639;28;20507;-74
2022/09/06 05:06:30;;;;;;;21.70;17.42;;;16.50;88.70;;;;;;4979001;28;20034;-73
2022/09/06 05:08:56;;;;;;;18.40;16.50;;;16.40;88.70;;;;;;4978368;28;20046;-72
2022/09/06 05:11:22;;;;;;;19.77;17.17;;;16.40;88.80;;;;;;4974138;28;20398;-72
2022/09/06 05:13:49;;;;;;;21.38;18.38;;;16.40;88.90;;;;;;4975181;28;20061;-73
2022/09/06 05:16:15;;;;;;;25.05;17.67;;;16.40;88.90;;;;;;4973673;28;20042;-72
2022/09/06 05:18:41;;;;;;;20.45;17.35;;;16.40;89.00;;;;;;4976411;28;20536;-73
2022/09/06 05:21:07;;;;;;;16.95;15.10;;;16.40;88.90;;;;;;4975607;28;20030;-72
2022/09/06 05:23:32;;;;;;;19.15;15.73;;;16.40;88.90;;;;;;4972867;28;20034;-74
2022/09/06 05:25:58;;;;;;;19.67;17.45;;;16.50;88.90;;;;;;4979993;28;20031;-73
2022/09/06 05:28:24;;;;;;;20.08;16.75;;;16.50;88.80;;;;;;4977244;28;20043;-73
2022/09/06 05:30:49;;;;;;;20.10;15.88;;;16.60;88.80;;;;;;4977857;28;20034;-74
2022/09/06 05:33:20;;;;;;;17.35;15.48;;;16.60;88.80;;;;;;4982159;28;20098;-73
2022/09/06 05:35:46;;;;;;;16.77;15.02;;;16.60;88.60;;;;;;4976097;28;20679;-72
2022/09/06 05:38:11;;;;;;;17.15;15.40;;;16.60;88.40;;;;;;4982517;28;20060;-75
2022/09/06 05:40:37;;;;;;;17.73;14.82;;;16.70;88.30;;;;;;4984214;28;20084;-76
2022/09/06 05:43:03;;;;;;;16.08;14.05;;;16.70;88.30;;;;;;4984843;28;20043;-75
2022/09/06 05:45:28;;;;;;;16.17;14.50;;;16.70;88.10;;;;;;4983616;28;20053;-75
2022/09/06 05:47:54;;;;;;;18.15;14.95;;;16.70;88.10;;;;;;4989325;28;20430;-75
2022/09/06 05:50:20;;;;;;;19.63;16.15;;;16.80;88.00;;;;;;4985550;28;20133;-76
2022/09/06 05:52:46;;;;;;;18.50;15.00;;;16.80;87.80;;;;;;4984998;28;20097;-74
2022/09/06 05:55:11;;;;;;;18.42;16.08;;;16.90;87.60;;;;;;4984227;28;20054;-75
2022/09/06 05:57:37;;;;;;;16.50;13.65;;;16.90;87.60;;;;;;4981605;28;20027;-75
2022/09/06 06:00:05;;;;;;;18.33;15.43;;;16.90;87.60;;;;;;4979804;28;20406;-76
2022/09/06 06:02:30;;;;;;;18.38;15.48;;;17.00;87.50;;;;;;4983773;28;20035;-76
2022/09/06 06:04:57;;;;;;;16.20;14.60;;;17.00;87.60;;;;;;4986114;28;20246;-76
2022/09/06 06:07:22;;;;;;;16.25;14.55;;;17.00;87.60;;;;;;4985120;28;20045;-75
2022/09/06 06:09:48;;;;;;;17.55;14.52;;;17.10;87.50;;;;;;4978884;28;20030;-76
2022/09/06 06:12:13;;;;;;;15.27;13.10;;;17.10;87.60;;;;;;4983523;28;20039;-73
2022/09/06 06:14:39;;;;;;;17.55;15.75;;;17.10;87.60;;;;;;4984092;28;20053;-72
2022/09/06 06:17:05;;;;;;;19.58;16.85;;;17.20;87.60;;;;;;4986348;28;20125;-72
2022/09/06 06:19:31;;;;;;;19.75;15.75;;;17.20;87.70;;;;;;4985730;28;20042;-73
2022/09/06 06:21:57;;;;;;;19.98;16.48;;;17.30;87.50;;;;;;4992564;28;20080;-73
2022/09/06 06:24:23;;;;;;;18.67;13.90;;;17.40;87.60;;;;;;4982466;28;20038;-73
2022/09/06 06:26:48;;;;;;;18.30;13.02;;;17.50;87.60;;;;;;4984939;28;20042;-74
2022/09/06 06:29:14;;;;;;;15.23;11.52;;;17.60;87.50;;;;;;4986968;28;20497;-73
2022/09/06 06:31:40;;;;;;;13.80;8.90;;;17.60;87.50;;;;;;4985191;28;20085;-73
2022/09/06 06:34:06;;;;;;;14.02;8.98;;;17.70;87.20;;;;;;4981114;28;20054;-73
2022/09/06 06:36:34;;;;;;;11.00;7.30;;;17.90;86.90;;;;;;4986233;28;20126;-73
2022/09/06 06:39:01;;;;;;;12.98;7.57;;;18.00;86.30;;;;;;4983820;28;20113;-78
2022/09/06 06:41:29;;;;;;;9.82;6.57;;;18.10;86.00;;;;;;4984009;28;20035;-78
2022/09/06 06:44:01;;;;;;;10.07;6.50;;;18.30;85.40;;;;;;4977594;28;20037;-78
2022/09/06 06:46:35;;;;;;;10.75;6.20;;;18.50;84.90;;;;;;4980557;28;20069;-78
2022/09/06 06:49:01;;;;;;;14.52;7.18;;;18.60;84.20;;;;;;4980448;28;20026;-77
2022/09/06 06:51:29;;;;;;;11.50;6.22;;;18.80;83.50;;;;;;4977847;28;20097;-79
2022/09/06 06:53:55;;;;;;;12.00;6.38;;;18.80;83.00;;;;;;4984325;28;20465;-78
2022/09/06 06:56:24;;;;;;;9.38;6.15;;;18.90;82.80;;;;;;4985082;28;20104;-79
2022/09/06 06:58:52;;;;;;;9.93;6.25;;;19.00;82.60;;;;;;4986188;28;20092;-78
2022/09/06 07:01:20;;;;;;;11.02;5.85;;;19.10;82.70;;;;;;4985978;28;20057;-78
2022/09/06 07:03:46;;;;;;;14.23;5.85;;;19.20;81.70;;;;;;4985505;28;20105;-78
2022/09/06 07:06:12;;;;;;;9.50;5.45;;;19.30;82.00;;;;;;4983053;28;20146;-78
2022/09/06 07:08:39;;;;;;;9.85;6.15;;;19.60;81.30;;;;;;4986105;28;20234;-78
2022/09/06 07:11:06;;;;;;;8.70;5.18;;;19.70;80.20;;;;;;4986252;28;20038;-78
2022/09/06 07:13:33;;;;;;;10.02;5.35;;;20.00;79.60;;;;;;4983994;28;20065;-78
2022/09/06 07:16:22;;;;;;;7.55;5.10;;;20.20;78.80;;;;;;4988249;28;20049;-77
2022/09/06 07:18:52;;;;;;;9.45;5.15;;;20.40;78.40;;;;;;4976463;28;20034;-78
2022/09/06 07:21:24;;;;;;;8.68;5.72;;;20.50;77.50;;;;;;4983580;28;20283;-78
2022/09/06 07:23:50;;;;;;;10.07;5.80;;;20.70;77.10;;;;;;4980967;28;20472;-77
2022/09/06 07:26:22;;;;;;;11.68;5.63;;;20.80;77.20;;;;;;4994942;28;20684;-78
2022/09/06 07:28:54;;;;;;;8.88;5.00;;;21.00;76.60;;;;;;4988233;28;20046;-77
2022/09/06 07:31:20;;;;;;;11.52;5.75;;;21.20;76.60;;;;;;4984321;28;20045;-77
2022/09/06 07:33:46;;;;;;;10.35;5.60;;;21.40;75.70;;;;;;4986572;28;20042;-78
2022/09/06 07:36:11;;;;;;;8.43;5.32;;;21.50;74.90;;;;;;4986135;28;20038;-78
2022/09/06 07:38:37;;;;;;;8.68;5.50;;;21.70;75.10;;;;;;4988313;28;20741;-78
2022/09/06 07:41:09;;;;;;;10.25;5.32;;;22.00;74.20;;;;;;4993543;28;20042;-78
2022/09/06 07:43:35;;;;;;;12.27;5.10;;;22.00;74.00;;;;;;5004606;28;20042;-77
2022/09/06 07:46:05;;;;;;;9.43;5.10;;;22.10;74.20;;;;;;4989965;28;20149;-77
2022/09/06 07:48:32;;;;;;;8.80;5.40;;;22.00;73.70;;;;;;4986159;28;20042;-78
2022/09/06 07:51:05;;;;;;;8.32;5.82;;;21.90;74.00;;;;;;4985338;28;20042;-78
2022/09/06 07:53:31;;;;;;;9.00;5.00;;;22.00;73.80;;;;;;4965293;28;20506;-78
2022/09/06 07:55:58;;;;;;;10.68;5.10;;;22.10;73.30;;;;;;4965345;28;20054;-79
2022/09/06 07:58:24;;;;;;;9.30;5.35;;;22.20;72.90;;;;;;4966191;28;20074;-78
2022/09/06 08:00:50;;;;;;;9.43;4.70;;;22.20;72.80;;;;;;4964020;28;20157;-77
2022/09/06 08:03:15;;;;;;;9.05;5.18;;;22.10;73.10;;;;;;4964358;28;20441;-78
2022/09/06 08:05:41;;;;;;;9.32;5.28;;;22.10;72.80;;;;;;4965414;28;20035;-78
2022/09/06 08:08:07;;;;;;;9.35;5.63;;;22.30;72.90;;;;;;4966223;28;20516;-78
2022/09/06 08:10:32;;;;;;;11.52;5.30;;;22.60;71.80;;;;;;4964249;28;20035;-78
2022/09/06 08:12:58;;;;;;;8.57;5.13;;;22.90;70.70;;;;;;4965247;28;20487;-78
2022/09/06 08:15:23;;;;;;;9.15;5.03;;;23.10;70.40;;;;;;4963516;28;20061;-77
2022/09/06 08:17:50;;;;;;;9.93;5.03;;;23.30;69.40;;;;;;4980240;28;20042;-77
2022/09/06 08:20:16;;;;;;;10.75;5.03;;;23.40;69.80;;;;;;4983778;28;20034;-77
2022/09/06 08:22:41;;;;;;;9.57;5.05;;;23.40;69.50;;;;;;4981565;28;20045;-77
2022/09/06 08:25:07;;;;;;;8.75;4.97;;;23.60;68.10;;;;;;4983714;28;20046;-76
2022/09/06 08:27:33;;;;;;;9.82;5.60;;;23.80;68.20;;;;;;4983641;28;20042;-77
2022/09/06 08:29:58;;;;;;;8.57;5.13;;;23.70;68.40;;;;;;4981869;28;20038;-77
2022/09/06 08:32:24;;;;;;;8.75;5.03;;;23.80;68.50;;;;;;4985511;28;20041;-77
2022/09/06 08:34:50;;;;;;;9.50;5.47;;;23.90;67.60;;;;;;4983856;28;20475;-78
2022/09/06 08:37:15;;;;;;;14.50;5.05;;;24.00;66.70;;;;;;4983445;28;20049;-77
2022/09/06 08:39:41;;;;;;;9.43;4.32;;;23.90;68.20;;;;;;4984413;28;20185;-78
2022/09/06 08:42:09;;;;;;;9.85;4.30;;;23.90;68.00;;;;;;4982754;28;20512;-77
2022/09/06 08:44:39;;;;;;;10.00;5.18;;;24.00;68.30;;;;;;4985936;28;20053;-76
2022/09/06 08:47:09;;;;;;;10.57;5.10;;;24.40;66.90;;;;;;4978897;28;20035;-77
2022/09/06 08:49:44;;;;;;;8.77;3.83;;;24.60;66.00;;;;;;4984540;28;20492;-77
2022/09/06 08:52:40;;;;;;;9.48;3.97;;;24.60;64.90;;;;;;4981592;28;20092;-77
2022/09/06 08:55:15;;;;;;;11.10;4.50;;;24.20;65.50;;;;;;4981914;28;20162;-77
2022/09/06 08:57:40;;;;;;;10.82;4.00;;;24.10;66.90;;;;;;4981246;28;20478;-78
2022/09/06 09:00:10;;;;;;;8.60;4.07;;;24.10;66.90;;;;;;4981120;28;20038;-77
2022/09/06 09:02:46;;;;;;;8.77;3.78;;;24.30;67.10;;;;;;4982132;28;20035;-77
2022/09/06 09:05:24;;;;;;;9.80;3.65;;;24.30;65.80;;;;;;4983821;28;20076;-77
2022/09/06 09:08:27;;;;;;;7.57;3.95;;;24.60;65.30;;;;;;4984102;28;20537;-77
2022/09/06 09:11:04;;;;;;;7.65;3.40;;;24.50;64.60;;;;;;4964321;28;20043;-77
2022/09/06 09:13:51;;;;;;;8.95;3.17;;;24.70;63.90;;;;;;4984585;28;20042;-77
2022/09/06 09:16:17;;;;;;;8.85;3.28;;;25.00;63.10;;;;;;4986146;28;20143;-76
2022/09/06 09:18:50;;;;;;;7.75;3.42;;;25.10;61.70;;;;;;4984302;28;20042;-77
2022/09/06 09:21:21;;;;;;;7.50;2.83;;;25.30;62.50;;;;;;4985784;28;20429;-77
2022/09/06 09:23:52;;;;;;;10.20;3.17;;;25.30;60.40;;;;;;4989060;28;20473;-77
2022/09/06 09:26:19;;;;;;;7.93;3.25;;;25.20;61.20;;;;;;4979362;28;20035;-77
2022/09/06 09:29:06;;;;;;;10.55;3.80;;;25.20;61.70;;;;;;4984876;28;20366;-77
2022/09/06 09:31:49;;;;;;;7.85;3.00;;;25.30;61.40;;;;;;4985096;28;20126;-77
2022/09/06 09:34:32;;;;;;;7.50;3.17;;;25.00;62.50;;;;;;4983328;28;20101;-77
2022/09/06 09:37:19;;;;;;;7.80;2.72;;;25.50;60.80;;;;;;4983135;28;20469;-76
2022/09/06 09:39:46;;;;;;;7.68;3.17;;;25.80;60.10;;;;;;4974974;28;20259;-77
2022/09/06 09:42:23;;;;;;;10.68;3.50;;;25.80;59.60;;;;;;4960869;28;20085;-77
2022/09/06 09:44:49;;;;;;;9.98;3.90;;;25.80;59.20;;;;;;4959503;28;20495;-77
2022/09/06 09:47:27;;;;;;;6.80;3.15;;;26.20;59.10;;;;;;4966708;28;20030;-77
2022/09/06 09:49:54;;;;;;;5.50;2.55;;;26.30;58.30;;;;;;4961218;28;20062;-76
2022/09/06 09:52:30;;;;;;;6.57;2.63;;;26.60;56.30;;;;;;4968237;28;20410;-77
2022/09/06 09:55:01;;;;;;;6.68;2.40;;;26.30;56.40;;;;;;4984508;28;20046;-78
2022/09/06 09:57:30;;;;;;;6.78;2.85;;;26.30;56.70;;;;;;4987349;28;20039;-77
2022/09/06 09:59:59;;;;;;;6.35;2.65;;;26.30;56.60;;;;;;4987678;28;20565;-77
2022/09/06 10:02:34;;;;;;;7.68;2.67;;;26.10;56.10;;;;;;4984135;28;20026;-77
2022/09/06 10:05:05;;;;;;;5.78;2.25;;;26.30;54.90;;;;;;4986380;28;20126;-77
2022/09/06 10:07:33;;;;;;;7.15;2.22;;;26.50;54.60;;;;;;4976615;28;20041;-76
2022/09/06 10:10:05;;;;;;;10.02;2.33;;;26.30;53.50;;;;;;4985955;28;20045;-77
2022/09/06 10:12:40;;;;;;;6.97;2.53;;;26.60;54.30;;;;;;4973486;28;20077;-77
2022/09/06 10:15:08;;;;;;;7.40;2.10;;;26.80;53.60;;;;;;4981604;28;20159;-77
2022/09/06 10:17:36;;;;;;;6.75;2.38;;;27.00;52.40;;;;;;4975827;28;20041;-77
2022/09/06 10:20:07;;;;;;;7.85;2.20;;;26.80;52.70;;;;;;4988883;28;20034;-76
2022/09/06 10:23:04;;;;;;;5.60;2.20;;;26.90;51.10;;;;;;4986732;28;20048;-77
2022/09/06 10:25:29;;;;;;;5.63;2.13;;;26.60;52.20;;;;;;4985259;28;20085;-77
2022/09/06 10:28:27;;;;;;;4.95;1.75;;;26.60;51.70;;;;;;4985925;28;20034;-77
2022/09/06 10:31:23;;;;;;;5.03;2.20;;;27.00;49.10;;;;;;4979510;28;20461;-77
2022/09/06 10:34:05;;;;;;;5.10;1.67;;;27.20;50.40;;;;;;4979411;28;20093;-77
2022/09/06 10:36:43;;;;;;;5.60;2.17;;;27.10;50.80;;;;;;4967323;28;20555;-77
2022/09/06 10:39:20;;;;;;;7.72;2.35;;;27.10;51.50;;;;;;4964628;28;20035;-77
2022/09/06 10:42:09;;;;;;;6.65;2.05;;;27.30;50.90;;;;;;4966252;28;20521;-77
2022/09/06 10:44:40;;;;;;;5.43;2.00;;;27.30;50.00;;;;;;4985515;28;20030;-77
2022/09/06 10:47:10;;;;;;;6.32;2.33;;;27.20;50.40;;;;;;4982591;28;20035;-77
2022/09/06 10:49:38;;;;;;;6.53;2.30;;;27.20;51.20;;;;;;4985740;28;20042;-77
2022/09/06 10:52:08;;;;;;;6.03;2.47;;;27.00;51.40;;;;;;4979443;28;20042;-77
2022/09/06 10:54:39;;;;;;;7.88;2.75;;;27.10;50.30;;;;;;4979909;28;20056;-77
2022/09/06 10:57:12;;;;;;;5.07;1.92;;;27.20;51.30;;;;;;4984189;28;20058;-77
2022/09/06 10:59:54;;;;;;;7.10;2.00;;;27.40;50.60;;;;;;4991343;28;20121;-76
2022/09/06 11:02:50;;;;;;;6.63;2.00;;;27.30;50.70;;;;;;4987075;28;20113;-77
2022/09/06 11:05:20;;;;;;;6.53;2.10;;;27.00;50.80;;;;;;4982249;28;20038;-76
2022/09/06 11:08:14;;;;;;;5.72;1.80;;;27.20;50.90;;;;;;4980518;28;20038;-72
2022/09/06 11:10:44;;;;;;;6.80;1.90;;;26.60;51.70;;;;;;4975063;28;20419;-75
2022/09/06 11:13:12;;;;;;;6.45;2.15;;;26.50;52.00;;;;;;4983622;28;20430;-74
2022/09/06 11:16:02;;;;;;;4.85;1.80;;;26.20;52.00;;;;;;4986374;28;20049;-74
2022/09/06 11:18:31;;;;;;;6.60;2.20;;;26.60;52.10;;;;;;4991557;28;20117;-74
2022/09/06 11:21:16;;;;;;;6.50;2.17;;;27.20;50.80;;;;;;4985970;28;20434;-75
2022/09/06 11:23:51;;;;;;;6.10;2.05;;;27.60;50.70;;;;;;4975026;28;20054;-74
2022/09/06 11:26:35;;;;;;;5.90;2.10;;;27.90;48.90;;;;;;4981438;28;20039;-74
2022/09/06 11:29:09;;;;;;;7.53;2.17;;;27.40;49.50;;;;;;4984395;28;20041;-73
2022/09/06 11:31:50;;;;;;;7.82;2.17;;;27.30;50.40;;;;;;4975663;28;20097;-75
2022/09/06 11:34:25;;;;;;;4.80;2.30;;;27.50;48.90;;;;;;4977882;28;20031;-75
2022/09/06 11:36:54;;;;;;;5.53;1.90;;;27.50;49.70;;;;;;4978926;28;20037;-77
2022/09/06 11:39:30;;;;;;;5.32;2.10;;;27.40;50.00;;;;;;4983921;28;20521;-74
2022/09/06 11:41:56;;;;;;;6.43;2.08;;;27.60;49.70;;;;;;4981401;28;20397;-74
2022/09/06 11:44:50;;;;;;;5.55;1.98;;;27.60;49.10;;;;;;4980897;28;20031;-75
2022/09/06 11:47:39;;;;;;;5.07;2.03;;;27.60;50.80;;;;;;4982443;28;20038;-74
2022/09/06 11:50:20;;;;;;;7.45;2.13;;;28.00;49.60;;;;;;4984976;28;20042;-75
2022/09/06 11:52:58;;;;;;;6.65;2.17;;;28.00;48.40;;;;;;4980006;28;20049;-74
2022/09/06 11:55:44;;;;;;;4.50;2.13;;;27.80;48.90;;;;;;4984106;28;20042;-74
2022/09/06 11:58:16;;;;;;;6.93;2.20;;;28.10;49.10;;;;;;4958794;28;20042;-74
2022/09/06 12:00:43;;;;;;;6.28;2.20;;;28.20;49.00;;;;;;4958721;28;20058;-75
2022/09/06 12:03:29;;;;;;;6.40;2.45;;;28.10;48.70;;;;;;4965832;28;20039;-74
2022/09/06 12:06:34;;;;;;;7.53;2.47;;;28.40;47.80;;;;;;4961225;28;20112;-75
2022/09/06 12:09:00;;;;;;;8.27;2.20;;;28.30;47.60;;;;;;4963185;28;20459;-76
2022/09/06 12:11:43;;;;;;;4.65;1.95;;;28.50;47.50;;;;;;4989471;28;20023;-75
2022/09/06 12:14:41;;;;;;;7.70;2.15;;;28.60;47.40;;;;;;4979436;28;20081;-75
2022/09/06 12:17:17;;;;;;;6.10;2.35;;;28.70;47.50;;;;;;4984469;28;20466;-75
2022/09/06 12:19:46;;;;;;;5.80;1.92;;;28.80;47.00;;;;;;4982718;28;20148;-73
2022/09/06 12:22:28;;;;;;;6.68;2.08;;;28.80;46.70;;;;;;4988303;28;20043;-73
2022/09/06 12:25:14;;;;;;;5.57;2.15;;;29.00;46.00;;;;;;4979236;28;20159;-74
2022/09/06 12:28:04;;;;;;;7.63;2.40;;;29.20;45.70;;;;;;4964657;28;20038;-74
2022/09/06 12:30:35;;;;;;;6.07;1.90;;;29.60;44.60;;;;;;4951234;28;20042;-73
2022/09/06 12:33:06;;;;;;;6.85;2.20;;;29.30;45.00;;;;;;4983471;28;20026;-76
2022/09/06 12:35:33;;;;;;;7.88;2.00;;;29.60;44.40;;;;;;4984087;28;20133;-74
2022/09/06 12:38:10;;;;;;;4.72;1.90;;;29.90;43.60;;;;;;4984057;28;20482;-75
2022/09/06 12:40:50;;;;;;;16.13;2.47;;;30.10;43.30;;;;;;4971323;28;20042;-74
2022/09/06 12:43:17;;;;;;;6.82;1.95;;;29.90;43.40;;;;;;4982107;28;20041;-74
2022/09/06 12:45:45;;;;;;;5.40;2.10;;;29.70;44.10;;;;;;4979820;28;20045;-74
2022/09/06 12:48:24;;;;;;;5.88;2.00;;;29.60;44.10;;;;;;4987695;28;20052;-74
2022/09/06 12:51:03;;;;;;;5.03;1.60;;;29.50;44.00;;;;;;4978690;28;20039;-75
2022/09/06 12:53:30;;;;;;;5.25;1.77;;;29.40;42.30;;;;;;4977539;28;20375;-74
2022/09/06 12:56:08;;;;;;;5.32;1.80;;;29.50;42.00;;;;;;4986426;28;20121;-74